This is the latest recevied weather packets stored in our database for station/object KA0EGE. If no packets are shown the sender has not sent any weather packets the latest 10 day(s).
| Time | Temp. | Humidity | Pressure | Rain* | Wind** | Luminosity | Snow |
|---|---|---|---|---|---|---|---|
| 1777729913 | 12.78° C | 99% | 1015.1 hPa | 0 mm | - | 112 W/m² | - |
| 1777729609 | 12.78° C | 99% | 1015 hPa | 0 mm | - | 104 W/m² | - |
| 1777729306 | 12.78° C | 99% | 1015.1 hPa | 0 mm | - | 106 W/m² | - |
| 1777729003 | 12.78° C | 99% | 1015 hPa | 0 mm | - | 100 W/m² | - |
| 1777728699 | 12.78° C | 99% | 1014.9 hPa | 0 mm | - | 107 W/m² | - |
| 1777728396 | 12.22° C | 99% | 1014.8 hPa | 0 mm | - | 88 W/m² | - |
| 1777728093 | 12.22° C | 99% | 1014.8 hPa | 0 mm | - | 69 W/m² | - |
| 1777727790 | 12.22° C | 99% | 1014.5 hPa | 0 mm | - | 58 W/m² | - |
| 1777727487 | 12.22° C | 99% | 1014.5 hPa | 0 mm | - | 77 W/m² | - |
| 1777727185 | 12.22° C | 99% | 1014.3 hPa | 0 mm | - | 89 W/m² | - |
| 1777726883 | 12.22° C | 99% | 1015 hPa | 0 mm | - | 40 W/m² | - |
| 1777726578 | 12.22° C | 99% | 1014.9 hPa | 0 mm | - | 38 W/m² | - |
| 1777726276 | 12.22° C | 99% | 1014.5 hPa | 0 mm | - | 67 W/m² | - |
| 1777725972 | 12.22° C | 99% | 1014.4 hPa | 0 mm | - | 54 W/m² | - |
| 1777725669 | 12.22° C | 99% | 1014.5 hPa | 0 mm | - | 31 W/m² | - |
| 1777725368 | 12.22° C | 99% | 1014.7 hPa | 0 mm | - | 34 W/m² | - |
| 1777725064 | 12.22° C | 99% | 1014.9 hPa | 0 mm | - | 23 W/m² | - |
| 1777724761 | 12.22° C | 99% | 1014.3 hPa | 0 mm | - | 19 W/m² | - |
| 1777724458 | 12.22° C | 99% | 1014 hPa | 0 mm | - | 34 W/m² | - |
| 1777724156 | 12.22° C | 99% | 1014.1 hPa | 1.27 mm | - | 62 W/m² | - |
| 1777723853 | 12.22° C | 99% | 1014.4 hPa | 4.83 mm | - | 37 W/m² | - |
| 1777723549 | 12.22° C | 99% | 1014.8 hPa | 4.83 mm | - | 10 W/m² | - |
| 1777723246 | 12.22° C | 99% | 1014.3 hPa | 6.1 mm | - | 5 W/m² | - |
| 1777722944 | 12.22° C | 99% | 1014.2 hPa | 4.83 mm | - | 4 W/m² | - |
| 1777722639 | 12.22° C | 99% | 1014.5 hPa | 1.78 mm | - | 5 W/m² | - |
* Rain latest hour (hover to see other rain measurements)
** Current wind speed in m/s (hover to see current wind gust speed)